Time;durP1;ratioP1;P1;durP2;ratioP2;P2;SDS_P1;SDS_P2;PMS_P1;PMS_P2;Temp;Humidity;BMP_temperature;BMP_pressure;BME280_temperature;BME280_humidity;BME280_pressure;Samples;Min_cycle;Max_cycle;Signal;HPM_P1;HPM_P2
2022/07/01 00:01:01;;;;;;;0.45;0.45;;;20.20;99.90;;;;;;4939878;29;20598;-89
2022/07/01 00:03:26;;;;;;;0.20;0.20;;;20.20;99.90;;;;;;4939879;29;20546;-89
2022/07/01 00:05:52;;;;;;;0.00;0.00;;;20.20;99.90;;;;;;4956918;29;20023;-90
2022/07/01 00:08:17;;;;;;;0.20;0.15;;;20.10;99.90;;;;;;4939869;29;20509;-89
2022/07/01 00:10:43;;;;;;;0.35;0.20;;;20.10;99.90;;;;;;4939923;29;20112;-89
2022/07/01 00:13:09;;;;;;;0.75;0.45;;;20.10;99.90;;;;;;4939816;29;20027;-89
2022/07/01 00:15:34;;;;;;;0.10;0.10;;;20.10;99.90;;;;;;4939145;29;20023;-90
2022/07/01 00:18:00;;;;;;;0.45;0.45;;;20.00;99.90;;;;;;4949312;29;20074;-89
2022/07/01 00:20:26;;;;;;;0.10;0.10;;;20.00;99.90;;;;;;4947133;29;20079;-90
2022/07/01 00:22:52;;;;;;;0.20;0.20;;;19.90;99.90;;;;;;4939416;29;20023;-89
2022/07/01 00:25:18;;;;;;;0.00;0.00;;;19.90;99.90;;;;;;4939787;29;20027;-89
2022/07/01 00:27:44;;;;;;;0.00;0.00;;;19.80;99.90;;;;;;4939335;29;20110;-89
2022/07/01 00:30:10;;;;;;;0.55;0.52;;;19.80;99.90;;;;;;4956631;29;20035;-90
2022/07/01 00:32:36;;;;;;;0.30;0.00;;;19.80;99.90;;;;;;4939339;29;20030;-89
2022/07/01 00:35:02;;;;;;;0.00;0.00;;;19.80;99.90;;;;;;4956156;29;20122;-89
2022/07/01 00:37:28;;;;;;;0.05;0.05;;;19.70;99.90;;;;;;4939451;29;20023;-90
2022/07/01 00:39:53;;;;;;;0.47;0.40;;;19.70;99.90;;;;;;4939589;29;20451;-89
2022/07/01 00:42:19;;;;;;;0.40;0.40;;;19.60;99.90;;;;;;4939372;29;20023;-89
2022/07/01 00:44:45;;;;;;;0.03;0.03;;;19.60;99.90;;;;;;4956246;29;20068;-89
2022/07/01 00:47:12;;;;;;;0.68;0.68;;;19.60;99.90;;;;;;4939088;29;20122;-89
2022/07/01 00:49:39;;;;;;;0.20;0.20;;;19.50;99.90;;;;;;4939170;29;20035;-89
2022/07/01 00:52:07;;;;;;;0.00;0.00;;;19.40;99.90;;;;;;4939195;29;20032;-89
2022/07/01 00:54:35;;;;;;;0.10;0.10;;;19.40;99.90;;;;;;4939682;29;20062;-90
2022/07/01 00:57:09;;;;;;;0.00;0.00;;;19.40;99.90;;;;;;4939024;29;20024;-90
2022/07/01 00:59:36;;;;;;;0.68;0.40;;;19.40;99.90;;;;;;4939231;29;20027;-90
2022/07/01 01:02:02;;;;;;;0.17;0.17;;;19.30;99.90;;;;;;4939046;29;20027;-90
2022/07/01 01:04:27;;;;;;;0.50;0.50;;;19.30;99.90;;;;;;4939095;29;20027;-90
2022/07/01 01:06:53;;;;;;;0.15;0.15;;;19.20;99.90;;;;;;4956363;29;20037;-90
2022/07/01 01:09:19;;;;;;;0.43;0.20;;;19.20;99.90;;;;;;4938945;29;20450;-91
2022/07/01 01:11:45;;;;;;;0.10;0.10;;;19.20;99.90;;;;;;4938898;29;20035;-91
2022/07/01 01:14:10;;;;;;;0.20;0.20;;;19.10;99.90;;;;;;4956081;29;20031;-90
2022/07/01 01:16:38;;;;;;;0.00;0.00;;;19.10;99.90;;;;;;4938773;29;20114;-90
2022/07/01 01:19:07;;;;;;;0.35;0.25;;;19.00;99.90;;;;;;4956298;29;20015;-90
2022/07/01 01:21:36;;;;;;;0.15;0.05;;;19.00;99.90;;;;;;4938912;29;20486;-90
2022/07/01 01:24:02;;;;;;;0.10;0.10;;;19.00;99.90;;;;;;4939053;29;20533;-89
2022/07/01 01:26:28;;;;;;;0.10;0.10;;;18.90;99.90;;;;;;4940803;29;20082;-90
2022/07/01 01:28:53;;;;;;;0.10;0.10;;;18.90;99.90;;;;;;4942892;29;20079;-90
2022/07/01 01:31:31;;;;;;;0.38;0.38;;;18.90;99.90;;;;;;4942873;29;20386;-90
2022/07/01 01:33:57;;;;;;;0.30;0.20;;;18.80;99.90;;;;;;4942640;29;20030;-90
2022/07/01 01:36:23;;;;;;;2.17;0.75;;;18.80;99.90;;;;;;4942381;29;20106;-90
2022/07/01 01:38:48;;;;;;;0.10;0.10;;;18.70;99.90;;;;;;4942523;29;20055;-90
2022/07/01 01:41:14;;;;;;;0.20;0.10;;;18.70;99.90;;;;;;4942442;29;20466;-90
2022/07/01 01:43:40;;;;;;;0.00;0.00;;;18.70;99.90;;;;;;4942730;29;20041;-90
2022/07/01 01:46:05;;;;;;;0.10;0.10;;;18.70;99.90;;;;;;4942201;29;20487;-91
2022/07/01 01:48:31;;;;;;;0.20;0.20;;;18.60;99.90;;;;;;4942241;29;20049;-91
2022/07/01 01:50:57;;;;;;;0.20;0.20;;;18.60;99.90;;;;;;4942244;29;20065;-91
2022/07/01 01:53:24;;;;;;;0.10;0.10;;;18.60;99.90;;;;;;4942150;29;20047;-90
2022/07/01 01:55:50;;;;;;;0.20;0.20;;;18.50;99.90;;;;;;4942071;29;20090;-90
2022/07/01 01:58:16;;;;;;;1.27;0.38;;;18.50;99.90;;;;;;4942249;29;20028;-91
2022/07/01 02:00:41;;;;;;;0.00;0.00;;;18.50;99.90;;;;;;4942302;29;20032;-90
2022/07/01 02:03:07;;;;;;;0.30;0.30;;;18.50;99.90;;;;;;4973735;29;20011;-89
2022/07/01 02:05:35;;;;;;;0.38;0.38;;;18.50;99.90;;;;;;4948106;29;20039;-91
2022/07/01 02:08:02;;;;;;;0.10;0.10;;;18.40;99.90;;;;;;4942092;29;20578;-90
2022/07/01 02:10:27;;;;;;;0.13;0.13;;;18.40;99.90;;;;;;4941981;29;20479;-90
2022/07/01 02:12:53;;;;;;;0.30;0.28;;;18.40;99.90;;;;;;4941942;29;20066;-91
2022/07/01 02:15:19;;;;;;;0.25;0.25;;;18.40;99.90;;;;;;4941910;29;20019;-91
2022/07/01 02:17:44;;;;;;;0.13;0.13;;;18.40;99.90;;;;;;4941743;29;20030;-91
2022/07/01 02:20:14;;;;;;;0.13;0.13;;;18.40;99.90;;;;;;4941751;29;20131;-91
2022/07/01 02:22:41;;;;;;;0.45;0.45;;;18.40;99.90;;;;;;4958832;29;20051;-90
2022/07/01 02:25:07;;;;;;;0.20;0.20;;;18.40;99.90;;;;;;4941583;29;20118;-90
2022/07/01 02:27:33;;;;;;;0.47;0.20;;;18.40;99.90;;;;;;4941895;29;20493;-90
2022/07/01 02:29:58;;;;;;;0.20;0.00;;;18.40;99.90;;;;;;4941582;29;20028;-90
2022/07/01 02:32:24;;;;;;;0.20;0.20;;;18.40;99.90;;;;;;4941868;29;20034;-91
2022/07/01 02:34:51;;;;;;;0.00;0.00;;;18.40;99.90;;;;;;4941536;29;20031;-90
2022/07/01 02:37:16;;;;;;;0.47;0.28;;;18.40;99.90;;;;;;4940559;29;20028;-90
2022/07/01 02:39:42;;;;;;;0.20;0.20;;;18.50;99.90;;;;;;4941429;29;20118;-90
2022/07/01 02:42:23;;;;;;;0.20;0.20;;;18.50;99.90;;;;;;4941703;29;20024;-90
2022/07/01 02:44:48;;;;;;;0.00;0.00;;;18.50;99.90;;;;;;4941368;29;20031;-91
2022/07/01 02:47:14;;;;;;;0.00;0.00;;;18.50;99.90;;;;;;4941143;29;20130;-90
2022/07/01 02:49:39;;;;;;;0.43;0.43;;;18.50;99.90;;;;;;4941577;29;20039;-90
2022/07/01 02:52:06;;;;;;;0.40;0.30;;;18.60;99.90;;;;;;4941069;29;20498;-90
2022/07/01 02:54:31;;;;;;;0.17;0.17;;;18.60;99.90;;;;;;4941294;29;20027;-90
2022/07/01 02:56:57;;;;;;;0.40;0.40;;;18.60;99.90;;;;;;4940975;29;20029;-90
2022/07/01 02:59:23;;;;;;;0.10;0.10;;;18.60;99.90;;;;;;4941065;29;20035;-90
2022/07/01 03:01:48;;;;;;;0.52;0.52;;;18.60;99.90;;;;;;4940890;29;20031;-90
2022/07/01 03:04:14;;;;;;;0.13;0.13;;;18.70;99.90;;;;;;4941117;29;20031;-89
2022/07/01 03:06:41;;;;;;;1.55;1.45;;;18.70;99.90;;;;;;4941055;29;20122;-90
2022/07/01 03:09:06;;;;;;;3.00;1.33;;;18.80;99.90;;;;;;4940946;29;20110;-90
2022/07/01 03:11:32;;;;;;;0.95;0.43;;;18.80;99.90;;;;;;4940781;29;20130;-89
2022/07/01 03:13:58;;;;;;;0.80;0.65;;;19.00;99.90;;;;;;4940784;29;20031;-90
2022/07/01 03:16:23;;;;;;;0.08;0.08;;;19.00;99.90;;;;;;4940993;29;20091;-90
2022/07/01 03:18:49;;;;;;;0.00;0.00;;;19.10;99.90;;;;;;4940836;29;20020;-89
2022/07/01 03:21:15;;;;;;;0.40;0.32;;;19.10;99.90;;;;;;4957990;29;20570;-89
2022/07/01 03:23:40;;;;;;;0.63;0.40;;;19.20;99.90;;;;;;4940871;29;20031;-89
2022/07/01 03:26:06;;;;;;;0.13;0.13;;;19.30;99.90;;;;;;4940647;29;20031;-90
2022/07/01 03:28:33;;;;;;;0.43;0.43;;;19.40;99.90;;;;;;4940719;29;20114;-90
2022/07/01 03:31:00;;;;;;;1.02;1.02;;;19.50;99.90;;;;;;4940333;29;20037;-90
2022/07/01 03:33:25;;;;;;;0.70;0.70;;;19.60;99.90;;;;;;4940378;29;20475;-90
2022/07/01 03:35:51;;;;;;;0.10;0.10;;;19.80;99.90;;;;;;4940370;29;20027;-90
2022/07/01 03:38:17;;;;;;;0.63;0.63;;;20.00;99.90;;;;;;4940203;29;20023;-90
2022/07/01 03:40:42;;;;;;;0.60;0.60;;;20.10;99.90;;;;;;4940318;29;20031;-89
2022/07/01 03:43:09;;;;;;;0.55;0.55;;;20.30;99.90;;;;;;4940408;29;20529;-90
2022/07/01 03:45:35;;;;;;;0.75;0.50;;;20.50;99.90;;;;;;4940386;29;20062;-91
2022/07/01 03:48:02;;;;;;;1.35;1.25;;;20.70;99.90;;;;;;4949726;29;20043;-89
2022/07/01 03:50:28;;;;;;;0.50;0.50;;;20.70;99.90;;;;;;4936744;29;20542;-89
2022/07/01 03:55:39;;;;;;;0.60;0.60;;;20.90;99.90;;;;;;4938253;29;20539;-90
2022/07/01 03:58:05;;;;;;;1.45;1.33;;;21.00;99.90;;;;;;4937976;29;20043;-89
2022/07/01 04:00:35;;;;;;;0.80;0.50;;;21.10;99.90;;;;;;4937104;29;20024;-90
2022/07/01 04:03:01;;;;;;;1.23;0.95;;;21.10;99.90;;;;;;4936825;29;20499;-89
2022/07/01 04:05:27;;;;;;;0.80;0.75;;;21.20;99.90;;;;;;4936758;29;20039;-90
2022/07/01 04:07:52;;;;;;;0.73;0.73;;;21.30;99.90;;;;;;4936610;29;20043;-90
2022/07/01 04:10:18;;;;;;;1.40;1.25;;;21.40;99.90;;;;;;4936474;29;20039;-90
2022/07/01 04:12:44;;;;;;;1.40;1.17;;;21.50;99.90;;;;;;4936472;29;20082;-90
2022/07/01 04:15:10;;;;;;;1.60;1.50;;;21.50;99.90;;;;;;4937504;29;20027;-89
2022/07/01 04:17:36;;;;;;;0.68;0.60;;;21.60;99.90;;;;;;4936670;29;20068;-89
2022/07/01 04:20:02;;;;;;;0.63;0.63;;;21.70;99.90;;;;;;4937360;29;20423;-90
2022/07/01 04:22:35;;;;;;;2.08;1.98;;;21.80;99.90;;;;;;4936502;29;20052;-90
2022/07/01 04:25:03;;;;;;;3.33;0.50;;;21.90;99.90;;;;;;4936435;29;20096;-90
2022/07/01 04:27:30;;;;;;;0.70;0.70;;;21.90;99.90;;;;;;4936109;29;20027;-91
2022/07/01 04:29:56;;;;;;;0.88;0.88;;;22.00;99.90;;;;;;4936466;29;20024;-91
2022/07/01 04:32:22;;;;;;;0.95;0.95;;;22.10;99.90;;;;;;4936340;29;20411;-90
2022/07/01 04:34:48;;;;;;;1.90;1.77;;;22.20;99.90;;;;;;4936232;29;20019;-90
2022/07/01 04:37:14;;;;;;;6.53;2.30;;;22.20;99.90;;;;;;4936458;29;20028;-90
2022/07/01 04:39:40;;;;;;;0.98;0.80;;;22.40;99.90;;;;;;4937331;29;20104;-90
2022/07/01 04:42:06;;;;;;;1.05;1.05;;;22.50;99.90;;;;;;4936132;29;20036;-90
2022/07/01 04:44:33;;;;;;;0.63;0.63;;;22.50;99.90;;;;;;4937217;29;20036;-90
2022/07/01 04:47:00;;;;;;;1.00;1.00;;;22.70;99.90;;;;;;4936010;29;20043;-90
2022/07/01 04:49:26;;;;;;;0.75;0.75;;;22.70;99.90;;;;;;4936108;29;20059;-92
2022/07/01 04:51:52;;;;;;;0.73;0.63;;;22.80;99.90;;;;;;4936144;29;20514;-90
2022/07/01 04:54:19;;;;;;;0.38;0.38;;;22.90;99.90;;;;;;4935984;29;20047;-91
2022/07/01 04:56:44;;;;;;;0.93;0.93;;;22.90;99.90;;;;;;4936095;29;20383;-91
2022/07/01 04:59:11;;;;;;;0.73;0.73;;;22.80;99.90;;;;;;4937049;29;20040;-90
2022/07/01 05:01:37;;;;;;;0.73;0.73;;;22.80;99.90;;;;;;4938204;29;20024;-92
2022/07/01 05:04:03;;;;;;;0.70;0.70;;;23.00;99.90;;;;;;4942123;29;20039;-90
2022/07/01 05:06:28;;;;;;;1.33;1.23;;;23.00;99.90;;;;;;4940117;29;20028;-90
2022/07/01 05:08:54;;;;;;;0.20;0.20;;;23.10;99.90;;;;;;4939778;29;20035;-90
2022/07/01 05:11:20;;;;;;;3.28;1.00;;;23.20;99.90;;;;;;4939624;29;20039;-90
2022/07/01 05:13:46;;;;;;;0.40;0.40;;;23.30;99.90;;;;;;4939908;29;20430;-91
2022/07/01 05:16:11;;;;;;;0.22;0.22;;;23.30;99.90;;;;;;4939739;29;20031;-91
2022/07/01 05:24:07;;;;;;;0.63;0.63;;;23.70;99.90;;;;;;4941292;29;20035;-90
2022/07/01 05:26:33;;;;;;;0.90;0.90;;;23.80;99.90;;;;;;4939449;29;20474;-89
2022/07/01 05:28:59;;;;;;;0.93;0.50;;;23.80;99.90;;;;;;4957397;29;20043;-90
2022/07/01 05:31:25;;;;;;;0.85;0.85;;;24.00;99.90;;;;;;4939306;29;20111;-89
2022/07/01 05:33:52;;;;;;;0.47;0.47;;;23.90;99.90;;;;;;4939324;29;20172;-89
2022/07/01 05:36:20;;;;;;;0.63;0.63;;;24.00;99.90;;;;;;4939460;29;20460;-90
2022/07/01 05:38:45;;;;;;;0.30;0.30;;;24.10;99.90;;;;;;4939227;29;20459;-90
2022/07/01 05:41:11;;;;;;;0.73;0.73;;;24.10;99.90;;;;;;4939050;29;20031;-90
2022/07/01 05:43:36;;;;;;;1.85;0.60;;;24.10;99.90;;;;;;4923258;29;20032;-92
2022/07/01 05:46:02;;;;;;;0.40;0.40;;;24.10;99.90;;;;;;4923568;29;20039;-90
2022/07/01 05:48:28;;;;;;;0.55;0.55;;;24.10;99.90;;;;;;4938600;29;20130;-90
2022/07/01 05:50:54;;;;;;;3.75;1.63;;;24.20;99.90;;;;;;4940621;29;20059;-90
2022/07/01 05:53:20;;;;;;;0.70;0.70;;;24.30;99.90;;;;;;4939891;29;20040;-90
2022/07/01 05:55:45;;;;;;;0.57;0.57;;;24.30;99.90;;;;;;4938845;29;20024;-90
2022/07/01 05:58:12;;;;;;;0.32;0.32;;;24.40;99.90;;;;;;4923338;29;20044;-91
2022/07/01 06:00:42;;;;;;;1.17;1.08;;;24.50;99.80;;;;;;4939143;29;20042;-90
2022/07/01 06:03:09;;;;;;;0.77;0.77;;;24.50;99.90;;;;;;4939152;29;20035;-91
2022/07/01 06:05:35;;;;;;;0.82;0.63;;;24.60;98.90;;;;;;4939035;29;20501;-91
2022/07/01 06:08:01;;;;;;;0.60;0.60;;;24.50;99.50;;;;;;4939962;29;20036;-90
2022/07/01 06:10:26;;;;;;;0.60;0.60;;;24.70;98.60;;;;;;4939004;29;20032;-90
2022/07/01 06:12:52;;;;;;;0.25;0.25;;;24.80;98.30;;;;;;4937069;29;20038;-90
2022/07/01 06:15:19;;;;;;;1.40;1.30;;;24.90;97.40;;;;;;4938464;29;20111;-91
2022/07/01 06:17:45;;;;;;;1.90;0.98;;;25.00;97.90;;;;;;4939573;29;20023;-90
2022/07/01 06:20:11;;;;;;;0.35;0.35;;;25.00;96.80;;;;;;4938581;29;20670;-90
2022/07/01 06:22:36;;;;;;;0.03;0.03;;;25.10;95.70;;;;;;4939641;29;20391;-90
2022/07/01 06:25:03;;;;;;;1.20;1.10;;;25.20;94.20;;;;;;4938336;29;20024;-91
2022/07/01 06:27:29;;;;;;;0.30;0.30;;;25.30;91.90;;;;;;4922718;29;20490;-91
2022/07/01 06:29:55;;;;;;;0.50;0.50;;;25.30;91.20;;;;;;4922482;29;20046;-91
2022/07/01 06:32:20;;;;;;;0.73;0.73;;;25.40;92.80;;;;;;4922031;29;20455;-90
2022/07/01 06:34:48;;;;;;;0.40;0.40;;;25.40;95.20;;;;;;4937978;29;20087;-90
2022/07/01 06:37:14;;;;;;;0.45;0.43;;;25.40;94.00;;;;;;4939286;29;20031;-91
2022/07/01 06:39:40;;;;;;;0.17;0.17;;;25.50;94.30;;;;;;4938172;29;20114;-93
2022/07/01 06:42:06;;;;;;;0.75;0.55;;;25.50;91.90;;;;;;4938295;29;20051;-91
2022/07/01 06:44:32;;;;;;;0.98;0.40;;;25.60;92.00;;;;;;4937692;29;20031;-92
2022/07/01 06:46:57;;;;;;;0.80;0.80;;;25.60;92.00;;;;;;4938053;29;20043;-91
2022/07/01 06:49:23;;;;;;;0.05;0.05;;;25.60;93.70;;;;;;4938318;29;20483;-90
2022/07/01 06:51:49;;;;;;;0.38;0.28;;;25.50;90.00;;;;;;4938061;29;20031;-91
2022/07/01 06:54:16;;;;;;;0.30;0.30;;;25.60;89.30;;;;;;4937806;29;20136;-91
2022/07/01 06:56:41;;;;;;;0.10;0.10;;;25.70;83.80;;;;;;4938118;29;20119;-91
2022/07/01 06:59:07;;;;;;;0.32;0.32;;;25.60;85.50;;;;;;4937888;29;20059;-92
2022/07/01 07:01:33;;;;;;;0.85;0.57;;;25.60;81.60;;;;;;4938668;29;20028;-89
2022/07/01 07:03:58;;;;;;;0.45;0.45;;;25.70;85.00;;;;;;4922028;29;20028;-90
2022/07/01 07:06:24;;;;;;;0.03;0.03;;;25.80;78.90;;;;;;4938136;29;20467;-92
2022/07/01 07:08:50;;;;;;;0.68;0.40;;;25.80;75.60;;;;;;4952329;29;20387;-91
2022/07/01 07:11:19;;;;;;;0.15;0.15;;;25.90;75.90;;;;;;4938093;29;20030;-89
2022/07/01 07:13:44;;;;;;;0.52;0.52;;;25.90;76.30;;;;;;4937752;29;20107;-91
2022/07/01 07:16:10;;;;;;;0.10;0.10;;;26.00;76.50;;;;;;4938432;29;20506;-91
2022/07/01 07:18:36;;;;;;;0.57;0.57;;;25.90;72.90;;;;;;4937457;29;20027;-90
2022/07/01 07:21:03;;;;;;;0.73;0.68;;;26.00;75.00;;;;;;4937325;29;20027;-90
2022/07/01 07:23:28;;;;;;;0.68;0.43;;;26.20;76.30;;;;;;4921647;29;20043;-91
2022/07/01 07:25:55;;;;;;;0.22;0.20;;;26.10;74.10;;;;;;4921772;29;20368;-91
2022/07/01 07:28:20;;;;;;;0.50;0.50;;;26.20;75.70;;;;;;4937286;29;20486;-90
2022/07/01 07:30:46;;;;;;;0.10;0.10;;;26.20;75.90;;;;;;4937113;29;20055;-91
2022/07/01 07:33:12;;;;;;;0.00;0.00;;;26.20;75.40;;;;;;4938358;29;20383;-91
2022/07/01 07:35:38;;;;;;;0.30;0.30;;;26.20;76.00;;;;;;4937264;29;20020;-93
2022/07/01 07:38:03;;;;;;;0.30;0.30;;;26.30;75.20;;;;;;4937048;29;20486;-92
2022/07/01 07:40:29;;;;;;;0.30;0.30;;;26.20;76.40;;;;;;4937098;29;20028;-91
2022/07/01 07:42:55;;;;;;;0.20;0.20;;;26.20;75.50;;;;;;4936736;29;20031;-91
2022/07/01 07:45:21;;;;;;;0.60;0.60;;;26.30;76.10;;;;;;4936834;29;20028;-93
2022/07/01 07:47:48;;;;;;;0.50;0.50;;;26.30;75.30;;;;;;4921230;29;20082;-90
2022/07/01 07:50:14;;;;;;;0.20;0.20;;;26.30;75.60;;;;;;4936672;29;20032;-91
2022/07/01 07:52:41;;;;;;;0.45;0.45;;;26.40;78.00;;;;;;4936826;29;20035;-90
2022/07/01 07:55:09;;;;;;;0.57;0.57;;;26.50;78.10;;;;;;4936822;29;20020;-90
2022/07/01 07:57:38;;;;;;;0.20;0.20;;;26.50;78.30;;;;;;4937834;29;20019;-91
2022/07/01 08:00:06;;;;;;;1.08;0.70;;;26.50;76.40;;;;;;4936589;29;20079;-93
2022/07/01 08:02:31;;;;;;;0.35;0.35;;;26.50;76.50;;;;;;4938007;29;20486;-91
2022/07/01 08:04:57;;;;;;;1.15;0.47;;;26.50;76.30;;;;;;4936491;29;20035;-90
2022/07/01 08:07:23;;;;;;;0.35;0.32;;;26.40;77.40;;;;;;4936777;29;20451;-91
2022/07/01 08:09:49;;;;;;;0.30;0.25;;;26.50;77.40;;;;;;4937524;29;20159;-91
2022/07/01 08:12:16;;;;;;;0.30;0.30;;;26.60;77.80;;;;;;4920601;29;20131;-93
2022/07/01 08:14:42;;;;;;;0.30;0.30;;;26.70;78.30;;;;;;4936680;29;20024;-91
2022/07/01 08:17:07;;;;;;;0.45;0.45;;;26.70;76.70;;;;;;4936776;29;20031;-91
2022/07/01 08:19:33;;;;;;;1.23;1.13;;;26.60;77.70;;;;;;4936818;29;20028;-91
2022/07/01 08:21:59;;;;;;;1.27;0.90;;;26.70;77.60;;;;;;4936357;29;20028;-90
2022/07/01 08:24:25;;;;;;;0.40;0.40;;;26.80;78.60;;;;;;4936229;29;20031;-90
2022/07/01 08:26:51;;;;;;;0.57;0.57;;;26.80;77.00;;;;;;4936696;29;20114;-91
2022/07/01 08:29:18;;;;;;;0.10;0.10;;;26.80;76.30;;;;;;4920721;29;20063;-92
2022/07/01 08:31:43;;;;;;;0.25;0.25;;;26.90;78.60;;;;;;4937859;29;20062;-92
2022/07/01 08:34:09;;;;;;;0.40;0.25;;;27.00;77.40;;;;;;4936010;29;20024;-90
2022/07/01 08:36:35;;;;;;;0.20;0.20;;;27.10;77.60;;;;;;4936569;29;20020;-90
2022/07/01 08:39:01;;;;;;;0.30;0.30;;;27.10;76.90;;;;;;4936196;29;20028;-93
2022/07/01 08:41:26;;;;;;;0.35;0.35;;;27.20;77.20;;;;;;4935803;29;20083;-90
2022/07/01 08:43:52;;;;;;;0.10;0.10;;;27.20;76.30;;;;;;4936490;29;20518;-90
2022/07/01 08:46:18;;;;;;;0.85;0.70;;;27.20;76.10;;;;;;4937207;29;20035;-90
2022/07/01 08:48:44;;;;;;;0.20;0.20;;;27.20;76.80;;;;;;4938952;29;20038;-92
2022/07/01 08:51:11;;;;;;;0.22;0.20;;;27.30;75.80;;;;;;4938875;29;20607;-89
2022/07/01 08:53:37;;;;;;;0.10;0.10;;;27.30;76.20;;;;;;4939195;29;20019;-91
2022/07/01 08:58:49;;;;;;;0.47;0.47;;;27.30;77.20;;;;;;4956721;29;20167;-90
2022/07/01 09:01:23;;;;;;;0.43;0.43;;;27.40;76.50;;;;;;4938787;29;20034;-92
2022/07/01 09:03:50;;;;;;;0.50;0.50;;;27.50;76.00;;;;;;4939473;29;20035;-90
2022/07/01 09:06:27;;;;;;;0.28;0.28;;;27.50;77.90;;;;;;4939480;29;20118;-92
2022/07/01 09:08:53;;;;;;;0.30;0.30;;;27.70;76.90;;;;;;4939412;29;20063;-95
2022/07/01 09:11:21;;;;;;;0.90;0.73;;;27.60;76.10;;;;;;4939589;29;20113;-92
2022/07/01 09:14:08;;;;;;;0.63;0.63;;;27.60;78.00;;;;;;4939319;29;20422;-90
2022/07/01 09:16:48;;;;;;;0.50;0.50;;;27.70;79.70;;;;;;4955825;29;20027;-90
2022/07/01 09:19:15;;;;;;;0.50;0.50;;;27.80;77.90;;;;;;4939108;29;20027;-92
2022/07/01 09:21:41;;;;;;;0.45;0.45;;;28.00;77.10;;;;;;4939192;29;20027;-89
2022/07/01 09:24:30;;;;;;;0.25;0.25;;;28.00;77.70;;;;;;4923258;29;20028;-91
2022/07/01 09:27:13;;;;;;;0.70;0.57;;;28.20;75.70;;;;;;4938952;29;20038;-90
2022/07/01 09:29:43;;;;;;;1.08;0.95;;;28.20;76.00;;;;;;4938865;29;20149;-89
2022/07/01 09:32:11;;;;;;;0.60;0.60;;;28.30;75.70;;;;;;4938916;29;20043;-91
2022/07/01 09:34:46;;;;;;;0.82;0.82;;;28.40;76.40;;;;;;4938566;29;20471;-91
2022/07/01 09:37:14;;;;;;;0.32;0.32;;;28.50;74.80;;;;;;4938690;29;20408;-89
2022/07/01 09:39:45;;;;;;;0.60;0.60;;;28.60;75.60;;;;;;4938940;29;20029;-90
2022/07/01 09:42:11;;;;;;;0.60;0.60;;;28.80;73.80;;;;;;4939221;29;20039;-89
2022/07/01 09:45:10;;;;;;;0.35;0.35;;;28.80;74.10;;;;;;4939107;29;20027;-91
2022/07/01 09:47:39;;;;;;;0.10;0.10;;;28.60;73.20;;;;;;4940808;29;20512;-92
2022/07/01 09:50:06;;;;;;;1.30;1.20;;;28.70;73.90;;;;;;4959409;29;20054;-91
2022/07/01 09:52:33;;;;;;;0.70;0.70;;;28.90;73.70;;;;;;4942473;29;20086;-90
2022/07/01 09:54:58;;;;;;;0.25;0.25;;;28.80;72.70;;;;;;4941969;29;20030;-91
2022/07/01 09:57:24;;;;;;;0.75;0.75;;;29.00;72.30;;;;;;4941996;29;20027;-91
2022/07/01 09:59:51;;;;;;;1.02;0.88;;;29.00;72.40;;;;;;4942424;29;20027;-90
2022/07/01 10:02:21;;;;;;;0.77;0.63;;;28.80;73.70;;;;;;4942441;29;20027;-90
2022/07/01 10:04:48;;;;;;;4.78;1.33;;;28.90;73.70;;;;;;4937905;29;20031;-91
2022/07/01 10:07:35;;;;;;;0.30;0.28;;;28.80;73.00;;;;;;4942055;29;20114;-90
2022/07/01 10:10:10;;;;;;;0.45;0.35;;;28.60;73.20;;;;;;4943839;29;20086;-90
2022/07/01 10:12:35;;;;;;;0.47;0.47;;;28.50;73.90;;;;;;4941961;29;20030;-90
2022/07/01 10:15:04;;;;;;;2.50;1.52;;;28.40;72.40;;;;;;4958878;29;20081;-90
2022/07/01 10:17:35;;;;;;;0.77;0.77;;;28.40;74.20;;;;;;4941427;29;20035;-92
2022/07/01 10:20:16;;;;;;;1.10;1.10;;;28.40;72.90;;;;;;4942141;29;20019;-90
2022/07/01 10:22:43;;;;;;;0.40;0.40;;;28.40;71.50;;;;;;4958888;29;20032;-90
2022/07/01 10:25:31;;;;;;;0.88;0.88;;;28.50;70.60;;;;;;4941691;29;20529;-90
2022/07/01 10:28:22;;;;;;;0.65;0.65;;;28.60;69.10;;;;;;4941693;29;20399;-91
2022/07/01 10:31:04;;;;;;;0.93;0.82;;;28.70;64.70;;;;;;4941700;29;20431;-90
2022/07/01 10:33:33;;;;;;;0.73;0.73;;;28.80;67.70;;;;;;4950532;29;20056;-91
2022/07/01 10:36:12;;;;;;;1.17;0.30;;;28.90;68.20;;;;;;4941528;29;20389;-90
2022/07/01 10:39:03;;;;;;;0.20;0.20;;;29.00;69.20;;;;;;4941432;29;20110;-89
2022/07/01 10:41:34;;;;;;;1.75;1.65;;;29.30;69.90;;;;;;4941383;29;20110;-90
2022/07/01 10:44:04;;;;;;;0.50;0.50;;;29.20;69.10;;;;;;4954220;29;20035;-92
2022/07/01 10:46:56;;;;;;;0.95;0.75;;;29.20;69.00;;;;;;4940894;29;20490;-92
2022/07/01 10:49:38;;;;;;;0.52;0.52;;;29.40;68.80;;;;;;4926271;29;20042;-90
2022/07/01 10:52:18;;;;;;;0.08;0.08;;;29.50;68.90;;;;;;4958352;29;20518;-90
2022/07/01 10:54:47;;;;;;;0.47;0.47;;;29.50;69.40;;;;;;4941301;29;20088;-89
2022/07/01 10:57:32;;;;;;;0.52;0.52;;;29.40;68.20;;;;;;4956754;29;20034;-90
2022/07/01 11:00:00;;;;;;;0.55;0.50;;;29.40;69.90;;;;;;4940424;29;20031;-91
2022/07/01 11:02:40;;;;;;;1.03;0.80;;;29.50;69.70;;;;;;4940986;29;20027;-92
2022/07/01 11:05:10;;;;;;;0.25;0.25;;;29.30;68.20;;;;;;4940609;29;20027;-92
2022/07/01 11:07:39;;;;;;;0.30;0.30;;;29.50;68.00;;;;;;4957786;29;20069;-90
2022/07/01 11:10:07;;;;;;;0.38;0.38;;;29.60;68.50;;;;;;4940619;29;20078;-89
2022/07/01 11:12:34;;;;;;;2.60;0.75;;;30.00;67.60;;;;;;4925067;29;20082;-94
2022/07/01 11:15:05;;;;;;;0.73;0.73;;;30.10;65.80;;;;;;4940829;29;20166;-91
2022/07/01 11:17:35;;;;;;;0.47;0.47;;;30.10;66.40;;;;;;4940743;29;20019;-92
2022/07/01 11:20:02;;;;;;;0.30;0.30;;;29.80;67.40;;;;;;4940557;29;20529;-92
2022/07/01 11:22:34;;;;;;;0.57;0.57;;;29.60;67.90;;;;;;4940624;29;20038;-89
2022/07/01 11:25:07;;;;;;;0.82;0.65;;;29.50;68.60;;;;;;4940612;29;20058;-89
2022/07/01 11:27:33;;;;;;;0.55;0.55;;;29.40;69.40;;;;;;4940561;29;20070;-91
2022/07/01 11:30:06;;;;;;;0.45;0.45;;;29.50;69.30;;;;;;4957495;29;20050;-92
2022/07/01 11:32:34;;;;;;;0.47;0.47;;;29.70;70.60;;;;;;4940277;29;20031;-94
2022/07/01 11:35:03;;;;;;;0.10;0.10;;;29.80;68.60;;;;;;4940600;29;20031;-90
2022/07/01 11:40:17;;;;;;;0.30;0.30;;;29.70;68.70;;;;;;4943533;29;20035;-91
2022/07/01 11:42:44;;;;;;;0.50;0.50;;;29.80;69.10;;;;;;4940092;29;20030;-91
2022/07/01 11:45:21;;;;;;;0.73;0.73;;;29.90;70.30;;;;;;4940393;29;20414;-93
2022/07/01 11:47:47;;;;;;;0.80;0.38;;;30.20;68.10;;;;;;4957479;29;20170;-92
2022/07/01 11:50:15;;;;;;;1.85;0.85;;;30.50;67.00;;;;;;4940431;29;20063;-93
2022/07/01 11:52:41;;;;;;;1.65;0.70;;;30.70;66.40;;;;;;4940646;29;20041;-92
2022/07/01 11:55:07;;;;;;;0.40;0.40;;;30.60;65.10;;;;;;4939817;29;20023;-93
2022/07/01 11:57:34;;;;;;;0.25;0.25;;;30.60;65.70;;;;;;4939855;29;20024;-91
2022/07/01 12:00:12;;;;;;;1.17;1.08;;;31.00;66.00;;;;;;4940000;29;20105;-90
2022/07/01 12:02:38;;;;;;;0.63;0.63;;;31.80;64.30;;;;;;4935704;29;20051;-91
2022/07/01 12:05:05;;;;;;;1.85;0.80;;;32.40;63.60;;;;;;4940215;29;20377;-90
2022/07/01 12:07:31;;;;;;;1.02;0.88;;;33.00;63.50;;;;;;4939482;29;20031;-90
2022/07/01 12:09:57;;;;;;;0.80;0.80;;;33.70;62.50;;;;;;4939689;29;20023;-91
2022/07/01 12:12:25;;;;;;;0.38;0.38;;;34.00;60.60;;;;;;4939493;29;20031;-93
2022/07/01 12:14:55;;;;;;;2.17;0.83;;;33.10;59.40;;;;;;4959940;29;20023;-90
2022/07/01 12:17:25;;;;;;;1.23;1.00;;;32.70;60.70;;;;;;4959855;29;20071;-90
2022/07/01 12:19:53;;;;;;;0.93;0.65;;;32.60;61.60;;;;;;4939816;29;20019;-90
2022/07/01 12:22:25;;;;;;;0.95;0.90;;;32.50;62.00;;;;;;4956486;29;20051;-92
2022/07/01 12:25:15;;;;;;;0.50;0.50;;;32.50;62.00;;;;;;4940098;29;20078;-95
2022/07/01 12:27:43;;;;;;;0.75;0.75;;;32.80;60.40;;;;;;4940264;29;20379;-93
2022/07/01 12:30:11;;;;;;;0.40;0.40;;;33.40;57.90;;;;;;4939819;29;20050;-91
2022/07/01 12:32:39;;;;;;;0.20;0.20;;;34.00;58.20;;;;;;4939384;29;20034;-93
2022/07/01 12:35:33;;;;;;;0.52;0.43;;;34.60;57.50;;;;;;4939320;29;20112;-93
2022/07/01 12:37:55;;;;;;;0.60;0.55;;;34.70;55.70;;;;;;4956276;29;20047;-93
2022/07/01 12:40:24;;;;;;;1.33;0.70;;;32.80;57.30;;;;;;4939301;29;20086;-90
2022/07/01 12:42:50;;;;;;;0.75;0.73;;;33.60;57.40;;;;;;4939278;29;20027;-91
2022/07/01 12:45:21;;;;;;;2.22;1.20;;;34.30;57.20;;;;;;4956214;29;20034;-93
2022/07/01 12:47:49;;;;;;;0.40;0.40;;;34.60;56.80;;;;;;4938809;29;20043;-93
2022/07/01 12:50:22;;;;;;;0.22;0.22;;;34.70;54.20;;;;;;4939527;29;20055;-93
2022/07/01 12:52:59;;;;;;;0.35;0.35;;;35.00;53.40;;;;;;4939396;29;20045;-90
2022/07/01 12:55:26;;;;;;;0.10;0.10;;;33.90;53.90;;;;;;4939417;29;20098;-91
2022/07/01 12:57:54;;;;;;;0.40;0.40;;;33.50;55.10;;;;;;4956072;29;20024;-92
2022/07/01 13:00:22;;;;;;;0.80;0.38;;;34.20;55.10;;;;;;4956223;29;20114;-90
2022/07/01 13:02:51;;;;;;;1.17;1.08;;;34.50;54.50;;;;;;4938948;29;20039;-92
2022/07/01 13:05:17;;;;;;;0.30;0.30;;;35.30;52.90;;;;;;4939013;29;20037;-91